LFSB METAR :   2016/10/01 13:30 LFSB 011330Z 20004KT 170V230 9999 -RA FEW030 BKN083 17/13 Q1013 NOSIG

TAF  2016/10/01 12:21 TAF TAF LFSB 011100Z 0112/0212 25008KT 9999 FEW030 BKN060 TEMPO 0112/0116 RA FEW025TCU BKN040 BECMG 0116/0118 VRB03KT TEMPO 0200/0206 5000 -RA BECMG 0207/0209 28010KT